Graham, Washington
Current Conditions -  °F | °C
As of 6:33 AM on Monday 20 Oct 2014 (Local Time) from KTCM Reporting Station
Overcast Overcast  
Wind Chill: 57°   Ceiling: 2900
Heat Index: 57°   Visibility: 10mi
Dew Point: 57°   Wind: 7mph
Humidity: 100%   Direction: 270°W
Pressure: 29.71"   Gusts: NA
Location:  47.03°N, 122.3°W
Report Text: KTCM 201333Z AUTO 27006KT 10SM FEW006 BKN029 OVC036 14/14 A2971 RMK AO2 RAB1256
Loading
Personal Weather Stations






























Interactive Weather Map
Tropical Storm Tracking
New forecast layout! Learn more

10-Day Weather Forecast

Advertisements
Track Severe Weather on mobile